Time;durP1;ratioP1;P1;durP2;ratioP2;P2;SDS_P1;SDS_P2;PMS_P1;PMS_P2;Temp;Humidity;BMP_temperature;BMP_pressure;BME280_temperature;BME280_humidity;BME280_pressure;Samples;Min_cycle;Max_cycle;Signal;HPM_P1;HPM_P2
2024/02/29 00:01:43;;;;;;;;;;;;;;;18.85;60.34;101458.56;7384702;19;2371;-42
2024/02/29 00:04:14;;;;;;;;;;;;;;;18.74;60.48;101455.81;7387900;19;1435;-42
2024/02/29 00:06:43;;;;;;;;;;;;;;;18.79;60.48;101467.03;7388450;19;1191;-41
2024/02/29 00:09:11;;;;;;;;;;;;;;;18.77;60.54;101501.97;7387703;19;1577;-41
2024/02/29 00:11:39;;;;;;;;;;;;;;;18.82;60.65;101462.34;7386911;19;1866;-42
2024/02/29 00:14:08;;;;;;;;;;;;;;;18.85;60.28;101466.59;7388497;19;1119;-42
2024/02/29 00:16:36;;;;;;;;;;;;;;;18.88;60.21;101459.19;7385832;19;1256;-42
2024/02/29 00:19:04;;;;;;;;;;;;;;;18.88;60.25;101463.69;7387611;19;1553;-42
2024/02/29 00:21:35;;;;;;;;;;;;;;;18.79;60.36;101462.56;7388287;19;1557;-42
2024/02/29 00:24:04;;;;;;;;;;;;;;;18.89;60.25;101462.72;7387652;19;1464;-41
2024/02/29 00:26:32;;;;;;;;;;;;;;;18.81;60.47;101454.41;7387978;19;1127;-42
2024/02/29 00:29:01;;;;;;;;;;;;;;;18.77;60.48;101460.94;7385051;19;1862;-42
2024/02/29 00:31:29;;;;;;;;;;;;;;;18.84;60.16;101459.53;7384704;19;2513;-42
2024/02/29 00:33:58;;;;;;;;;;;;;;;18.86;60.10;101457.56;7386607;19;1842;-41
2024/02/29 00:36:26;;;;;;;;;;;;;;;18.78;60.55;101459.97;7387093;19;1473;-42
2024/02/29 00:38:57;;;;;;;;;;;;;;;18.82;60.34;101473.06;7387011;19;1574;-42
2024/02/29 00:41:26;;;;;;;;;;;;;;;18.84;60.36;101460.41;7387239;19;1497;-42
2024/02/29 00:43:54;;;;;;;;;;;;;;;18.83;60.08;101458.66;7386720;19;1303;-42
2024/02/29 00:46:22;;;;;;;;;;;;;;;18.82;60.33;101451.63;7387594;19;1247;-42
2024/02/29 00:48:52;;;;;;;;;;;;;;;18.85;60.04;101455.88;7387934;19;1296;-41
2024/02/29 00:51:21;;;;;;;;;;;;;;;18.83;60.20;101449.78;7384637;19;1833;-41
2024/02/29 00:53:49;;;;;;;;;;;;;;;18.82;60.20;101456.97;7386339;19;1506;-41
2024/02/29 00:56:20;;;;;;;;;;;;;;;18.79;60.27;101450.97;7370174;19;1426;-41
2024/02/29 00:58:48;;;;;;;;;;;;;;;18.68;60.49;101458.00;7385866;19;1375;-42
2024/02/29 01:01:16;;;;;;;;;;;;;;;18.68;60.53;101451.75;7384525;19;1394;-41
2024/02/29 01:03:45;;;;;;;;;;;;;;;18.72;60.43;101455.06;7386148;19;1576;-41
2024/02/29 01:06:13;;;;;;;;;;;;;;;18.72;60.54;101455.06;7386916;19;1508;-41
2024/02/29 01:08:41;;;;;;;;;;;;;;;18.74;60.41;101435.25;7387705;19;1522;-42
2024/02/29 01:11:10;;;;;;;;;;;;;;;18.65;60.50;101455.53;7387131;19;1870;-42
2024/02/29 01:13:41;;;;;;;;;;;;;;;18.71;60.59;101448.03;7391507;19;1820;-42
2024/02/29 01:16:09;;;;;;;;;;;;;;;18.76;60.44;101456.53;7390816;19;1840;-41
2024/02/29 01:18:40;;;;;;;;;;;;;;;18.71;60.37;101438.16;7393965;19;1459;-41
2024/02/29 01:21:08;;;;;;;;;;;;;;;18.69;60.59;101451.66;7392962;19;1501;-41
2024/02/29 01:23:36;;;;;;;;;;;;;;;18.79;60.30;101461.69;7393129;19;1515;-41
2024/02/29 01:26:06;;;;;;;;;;;;;;;18.79;60.31;101446.47;7390378;19;2356;-42
2024/02/29 01:28:34;;;;;;;;;;;;;;;18.81;60.33;101454.41;7394328;19;1259;-42
2024/02/29 01:31:05;;;;;;;;;;;;;;;18.76;60.18;101451.19;7394236;19;1849;-42
2024/02/29 01:33:33;;;;;;;;;;;;;;;18.68;60.34;101452.63;7394021;19;1850;-41
2024/02/29 01:36:02;;;;;;;;;;;;;;;18.71;60.29;101448.03;7392155;19;1223;-42
2024/02/29 01:38:31;;;;;;;;;;;;;;;18.67;60.58;101442.03;7391061;19;1866;-42
2024/02/29 01:40:59;;;;;;;;;;;;;;;18.63;60.74;101445.91;7394128;19;1731;-42
2024/02/29 01:43:29;;;;;;;;;;;;;;;18.66;60.68;101446.53;7392518;19;1574;-41
2024/02/29 01:46:09;;;;;;;;;;;;;;;18.61;60.56;101437.16;7391609;19;1341;-41
2024/02/29 01:48:40;;;;;;;;;;;;;;;18.62;60.58;101439.72;7393893;19;1100;-41
2024/02/29 01:51:09;;;;;;;;;;;;;;;18.63;60.74;101443.25;7390770;19;1851;-42
2024/02/29 01:53:38;;;;;;;;;;;;;;;18.69;60.39;101451.66;7392746;19;1589;-42
2024/02/29 01:56:07;;;;;;;;;;;;;;;18.72;60.29;101437.19;7377113;19;1464;-41
2024/02/29 01:58:36;;;;;;;;;;;;;;;18.72;60.43;101444.34;7393095;19;1583;-41
2024/02/29 02:01:05;;;;;;;;;;;;;;;18.62;60.40;101433.47;7393346;19;1608;-41
2024/02/29 02:03:33;;;;;;;;;;;;;;;18.68;60.39;101443.72;7392296;19;1225;-42
2024/02/29 02:06:04;;;;;;;;;;;;;;;18.71;60.60;101445.34;7391127;19;1422;-42
2024/02/29 02:08:36;;;;;;;;;;;;;;;18.69;60.44;101440.94;7393194;19;1565;-41
2024/02/29 02:11:04;;;;;;;;;;;;;;;18.44;60.82;101447.31;7393334;19;1851;-42
2024/02/29 02:13:32;;;;;;;;;;;;;;;18.55;61.10;101449.16;7391513;19;1952;-41
2024/02/29 02:16:02;;;;;;;;;;;;;;;19.16;59.87;101432.91;7389977;19;1576;-41
2024/02/29 02:18:30;;;;;;;;;;;;;;;19.74;58.51;101465.03;7393194;19;1493;-41
2024/02/29 02:21:01;;;;;;;;;;;;;;;20.04;57.81;101432.13;7392601;19;1295;-41
2024/02/29 02:23:30;;;;;;;;;;;;;;;20.29;57.18;101437.31;7390816;19;1417;-42
2024/02/29 02:25:59;;;;;;;;;;;;;;;20.20;57.42;101434.41;7390824;19;1299;-42
2024/02/29 02:28:28;;;;;;;;;;;;;;;20.10;57.77;101432.63;7392912;19;1217;-41
2024/02/29 02:30:56;;;;;;;;;;;;;;;20.16;57.76;101438.34;7390896;19;1841;-42
2024/02/29 02:33:24;;;;;;;;;;;;;;;20.14;57.63;101434.91;7391416;19;1921;-41
2024/02/29 02:35:53;;;;;;;;;;;;;;;20.10;57.87;101438.84;7391471;19;1596;-42
2024/02/29 02:38:24;;;;;;;;;;;;;;;20.23;57.52;101428.78;7392789;19;1818;-42
2024/02/29 02:40:52;;;;;;;;;;;;;;;20.34;57.43;101435.94;7390505;19;1586;-42
2024/02/29 02:43:21;;;;;;;;;;;;;;;20.33;57.26;101436.06;7391544;19;1526;-47
2024/02/29 02:45:49;;;;;;;;;;;;;;;20.34;57.37;101435.09;7389794;19;1568;-42
2024/02/29 02:48:17;;;;;;;;;;;;;;;20.39;57.25;101443.63;7391910;19;1230;-42
2024/02/29 02:50:46;;;;;;;;;;;;;;;20.48;57.23;101448.22;7385775;19;1847;-42
2024/02/29 02:53:14;;;;;;;;;;;;;;;20.42;57.03;101451.44;7391418;19;1542;-42
2024/02/29 02:55:45;;;;;;;;;;;;;;;20.49;56.96;101439.16;7384784;19;1493;-42
2024/02/29 02:58:13;;;;;;;;;;;;;;;20.52;56.96;101432.72;7388309;19;1581;-42
2024/02/29 03:00:42;;;;;;;;;;;;;;;20.60;56.97;101457.97;7390905;19;1942;-42
2024/02/29 03:03:10;;;;;;;;;;;;;;;20.58;56.88;101453.69;7391615;19;1498;-42
2024/02/29 03:05:38;;;;;;;;;;;;;;;20.63;56.81;101454.16;7390716;19;1954;-41
2024/02/29 03:08:07;;;;;;;;;;;;;;;20.69;56.61;101447.41;7389150;19;1415;-42
2024/02/29 03:10:36;;;;;;;;;;;;;;;20.71;56.85;101458.91;7391504;19;1842;-43
2024/02/29 03:13:07;;;;;;;;;;;;;;;20.68;56.77;101453.78;7391635;19;1631;-48
2024/02/29 03:15:35;;;;;;;;;;;;;;;20.76;56.63;101467.44;7391206;19;1037;-42
2024/02/29 03:18:04;;;;;;;;;;;;;;;20.75;56.85;101449.59;7389320;19;1189;-42
2024/02/29 03:20:32;;;;;;;;;;;;;;;20.73;56.81;101462.31;7391500;19;1551;-42
2024/02/29 03:23:00;;;;;;;;;;;;;;;20.76;56.55;101462.06;7390978;19;1489;-41
2024/02/29 03:25:29;;;;;;;;;;;;;;;20.82;56.58;101461.53;7389244;19;1841;-42
2024/02/29 03:38:41;;;;;;;;;;;;;;;20.57;57.55;101473.47;7244684;19;3338909;-37
2024/02/29 03:41:10;;;;;;;;;;;;;;;20.40;57.82;101466.81;7423544;19;1848;-37
2024/02/29 03:43:38;;;;;;;;;;;;;;;20.36;58.03;101473.44;7420279;19;1587;-35
2024/02/29 03:46:06;;;;;;;;;;;;;;;20.50;57.61;101462.38;7423853;19;1849;-35
2024/02/29 03:48:35;;;;;;;;;;;;;;;20.61;57.34;101462.38;7423156;19;1720;-35
2024/02/29 03:51:04;;;;;;;;;;;;;;;20.58;57.31;101462.59;7422913;19;1821;-35
2024/02/29 03:53:32;;;;;;;;;;;;;;;20.60;57.25;101466.03;7422325;19;1293;-35
2024/02/29 03:56:03;;;;;;;;;;;;;;;20.64;57.27;101456.72;7422224;19;1836;-35
2024/02/29 03:58:33;;;;;;;;;;;;;;;20.72;56.95;101469.53;7421675;19;1608;-35
2024/02/29 04:01:01;;;;;;;;;;;;;;;20.42;57.58;101464.88;7423671;19;1428;-35
2024/02/29 04:03:29;;;;;;;;;;;;;;;20.11;58.27;101474.59;7421061;19;1187;-35
2024/02/29 04:05:58;;;;;;;;;;;;;;;19.90;58.56;101458.41;7422588;19;1863;-37
2024/02/29 04:08:26;;;;;;;;;;;;;;;19.79;58.69;101483.44;7421552;19;1473;-35
2024/02/29 04:10:55;;;;;;;;;;;;;;;19.67;58.95;101477.19;7424328;19;1555;-35
2024/02/29 04:13:26;;;;;;;;;;;;;;;19.56;59.16;101478.03;7423355;19;1226;-35
2024/02/29 04:15:54;;;;;;;;;;;;;;;19.47;59.19;101478.75;7423334;19;1390;-35
2024/02/29 04:18:23;;;;;;;;;;;;;;;19.43;59.48;101488.03;7422537;19;1764;-35
2024/02/29 04:20:51;;;;;;;;;;;;;;;19.25;59.80;101477.75;7422650;19;1824;-35
2024/02/29 04:23:19;;;;;;;;;;;;;;;19.25;59.88;101499.22;7422135;19;1910;-36
2024/02/29 04:25:48;;;;;;;;;;;;;;;19.22;59.67;101480.69;7423120;19;1390;-35
2024/02/29 04:28:17;;;;;;;;;;;;;;;19.20;59.81;101495.19;7418357;19;1837;-35
2024/02/29 04:30:48;;;;;;;;;;;;;;;19.20;59.96;101495.19;7423133;19;1148;-36
2024/02/29 04:33:16;;;;;;;;;;;;;;;19.61;59.27;101491.09;7421257;19;1580;-36
2024/02/29 04:35:44;;;;;;;;;;;;;;;19.78;58.99;101487.94;7421982;19;1569;-35
2024/02/29 04:38:13;;;;;;;;;;;;;;;19.74;58.75;101491.84;7410546;19;1363;-35
2024/02/29 04:40:41;;;;;;;;;;;;;;;19.47;59.45;101494.84;7395105;19;1214;-35
2024/02/29 04:43:10;;;;;;;;;;;;;;;19.42;59.59;101492.53;7394616;19;1617;-35
2024/02/29 04:45:38;;;;;;;;;;;;;;;19.36;59.61;101493.03;7395826;19;1131;-36
2024/02/29 04:48:09;;;;;;;;;;;;;;;19.29;59.62;101507.88;7392585;19;1918;-35
2024/02/29 04:50:38;;;;;;;;;;;;;;;19.21;59.74;101491.53;7394733;19;1532;-35
2024/02/29 04:53:06;;;;;;;;;;;;;;;19.11;59.97;101498.59;7395793;19;1616;-35
2024/02/29 04:55:35;;;;;;;;;;;;;;;19.11;60.35;101509.31;7393436;19;1054;-36
2024/02/29 04:58:04;;;;;;;;;;;;;;;19.42;59.73;101505.97;7394764;19;1578;-36
2024/02/29 05:00:32;;;;;;;;;;;;;;;19.66;59.23;101505.00;7392022;19;1844;-37
2024/02/29 05:03:00;;;;;;;;;;;;;;;19.88;58.59;101489.91;7390880;19;1228;-36
2024/02/29 05:05:31;;;;;;;;;;;;;;;19.59;59.23;101509.97;7391719;19;1236;-36
2024/02/29 05:08:00;;;;;;;;;;;;;;;19.47;59.46;101508.25;7389916;19;1854;-36
2024/02/29 05:10:28;;;;;;;;;;;;;;;19.32;59.97;101507.66;7391870;19;1295;-35
2024/02/29 05:12:57;;;;;;;;;;;;;;;19.18;59.91;101516.78;7392312;19;1420;-37
2024/02/29 05:15:25;;;;;;;;;;;;;;;19.11;60.20;101525.41;7393003;19;1241;-35
2024/02/29 05:17:54;;;;;;;;;;;;;;;19.02;59.78;101526.94;7392624;19;1934;-35
2024/02/29 05:20:23;;;;;;;;;;;;;;;19.04;60.02;101507.09;7391278;19;2029;-36
2024/02/29 05:22:54;;;;;;;;;;;;;;;19.01;59.90;101504.66;7388616;19;1203;-35
2024/02/29 05:25:23;;;;;;;;;;;;;;;19.10;60.04;101512.94;7389456;19;1738;-35
2024/02/29 05:27:52;;;;;;;;;;;;;;;19.18;60.03;101510.53;7385956;19;1848;-37
2024/02/29 05:30:20;;;;;;;;;;;;;;;19.30;59.95;101517.66;7390449;19;1367;-35
2024/02/29 05:32:48;;;;;;;;;;;;;;;19.47;59.30;101519.00;7390738;19;1321;-37
2024/02/29 05:35:17;;;;;;;;;;;;;;;19.61;58.91;101512.53;7391126;19;1458;-35
2024/02/29 05:37:45;;;;;;;;;;;;;;;19.65;58.73;101516.69;7387986;19;1554;-35
2024/02/29 05:40:16;;;;;;;;;;;;;;;19.62;58.53;101515.13;7389580;19;1572;-36
2024/02/29 05:42:45;;;;;;;;;;;;;;;19.63;58.58;101515.97;7390146;19;1088;-36
2024/02/29 05:45:13;;;;;;;;;;;;;;;19.64;58.47;101523.06;7387531;19;1434;-35
2024/02/29 05:47:42;;;;;;;;;;;;;;;19.69;58.39;101515.47;7386088;19;1865;-36
2024/02/29 05:50:10;;;;;;;;;;;;;;;19.72;58.44;101509.06;7385266;19;1387;-35
2024/02/29 05:52:40;;;;;;;;;;;;;;;19.71;58.40;101529.66;7387309;19;1671;-36
2024/02/29 05:55:08;;;;;;;;;;;;;;;19.68;58.20;101525.34;7386422;19;1684;-42
2024/02/29 05:57:39;;;;;;;;;;;;;;;19.74;58.27;101528.56;7390416;19;1650;-36
2024/02/29 06:00:08;;;;;;;;;;;;;;;19.74;58.19;101517.84;7392283;19;1361;-36
2024/02/29 06:02:37;;;;;;;;;;;;;;;19.77;58.15;101529.16;7392369;19;1738;-36
2024/02/29 06:05:05;;;;;;;;;;;;;;;19.77;58.18;101521.13;7391162;19;1870;-36
2024/02/29 06:07:35;;;;;;;;;;;;;;;19.76;58.18;101532.84;7390886;19;1899;-36
2024/02/29 06:10:05;;;;;;;;;;;;;;;19.85;57.98;101525.88;7393749;19;1045;-36
2024/02/29 06:12:33;;;;;;;;;;;;;;;19.93;57.89;101514.53;7392294;19;1147;-36
2024/02/29 06:15:04;;;;;;;;;;;;;;;20.08;57.30;101524.03;7391333;19;1864;-36
2024/02/29 06:17:33;;;;;;;;;;;;;;;20.16;57.13;101510.84;7389763;19;1610;-36
2024/02/29 06:20:01;;;;;;;;;;;;;;;20.25;56.68;101502.03;7390066;19;1144;-36
2024/02/29 06:22:29;;;;;;;;;;;;;;;20.31;56.66;101508.72;7390130;19;1555;-36
2024/02/29 06:24:58;;;;;;;;;;;;;;;20.35;56.53;101495.88;7390265;19;1532;-36
2024/02/29 06:27:26;;;;;;;;;;;;;;;20.06;57.11;101513.41;7390006;19;1836;-36
2024/02/29 06:29:55;;;;;;;;;;;;;;;19.90;57.34;101518.31;7391478;19;1394;-36
2024/02/29 06:32:26;;;;;;;;;;;;;;;19.81;57.69;101500.25;7388407;19;1221;-36
2024/02/29 06:34:54;;;;;;;;;;;;;;;19.76;57.66;101522.09;7391473;19;1796;-36
2024/02/29 06:37:22;;;;;;;;;;;;;;;19.64;57.91;101534.63;7389557;19;1469;-36
2024/02/29 06:39:50;;;;;;;;;;;;;;;19.52;58.23;101513.25;7390876;19;1586;-36
2024/02/29 06:42:19;;;;;;;;;;;;;;;19.44;58.43;101533.50;7390845;19;1824;-36
2024/02/29 06:44:47;;;;;;;;;;;;;;;19.38;59.15;101517.91;7391602;19;1049;-36
2024/02/29 06:47:16;;;;;;;;;;;;;;;19.33;61.53;101503.13;7387899;19;1904;-36
2024/02/29 06:49:46;;;;;;;;;;;;;;;19.28;62.00;101511.56;7390616;19;1488;-36
2024/02/29 06:52:15;;;;;;;;;;;;;;;19.84;61.46;101513.44;7391863;19;1543;-37
2024/02/29 06:54:44;;;;;;;;;;;;;;;20.11;62.17;101531.81;7390346;19;1570;-36
2024/02/29 06:57:12;;;;;;;;;;;;;;;19.59;58.43;101519.88;7390183;19;1516;-36
2024/02/29 06:59:40;;;;;;;;;;;;;;;18.96;54.60;101509.53;7389553;19;1399;-38
2024/02/29 07:02:09;;;;;;;;;;;;;;;18.69;53.95;101532.03;7389271;19;1416;-36
2024/02/29 07:04:37;;;;;;;;;;;;;;;18.72;53.33;101525.59;7389200;19;1512;-36
2024/02/29 07:07:09;;;;;;;;;;;;;;;18.50;57.31;101523.66;7390210;19;1850;-36
2024/02/29 07:09:38;;;;;;;;;;;;;;;18.61;55.79;101520.19;7390385;19;1665;-35
2024/02/29 07:12:07;;;;;;;;;;;;;;;18.63;52.95;101510.22;7388467;19;1425;-36
2024/02/29 07:14:35;;;;;;;;;;;;;;;18.47;51.68;101505.16;7389662;19;1385;-37
2024/02/29 07:17:05;;;;;;;;;;;;;;;18.58;54.48;101517.72;7389928;19;1575;-36
2024/02/29 07:19:33;;;;;;;;;;;;;;;18.63;54.62;101512.88;7388649;19;1517;-36
2024/02/29 07:22:02;;;;;;;;;;;;;;;18.52;52.51;101521.72;7388188;19;1235;-36
2024/02/29 07:24:33;;;;;;;;;;;;;;;18.89;53.37;101532.38;7390657;19;1500;-37
2024/02/29 07:27:01;;;;;;;;;;;;;;;19.33;54.02;101517.41;7387976;19;1615;-36
2024/02/29 07:29:30;;;;;;;;;;;;;;;19.50;54.79;101525.94;7385726;19;1867;-36
2024/02/29 07:31:58;;;;;;;;;;;;;;;19.55;55.46;101546.06;7389926;19;1560;-36
2024/02/29 07:34:26;;;;;;;;;;;;;;;19.61;56.09;101540.22;7389935;19;1524;-36
2024/02/29 07:36:55;;;;;;;;;;;;;;;19.62;56.86;101519.63;7388587;19;1916;-36
2024/02/29 07:39:23;;;;;;;;;;;;;;;19.73;57.42;101538.44;7387098;19;1699;-36
2024/02/29 07:41:54;;;;;;;;;;;;;;;19.85;57.55;101521.34;7387640;19;1116;-40
2024/02/29 07:44:22;;;;;;;;;;;;;;;20.01;57.51;101537.09;7378659;19;1531;-38
2024/02/29 07:46:50;;;;;;;;;;;;;;;20.00;58.10;101529.19;7387425;19;1626;-38
2024/02/29 07:49:19;;;;;;;;;;;;;;;20.06;58.26;101534.03;7385197;19;1865;-39
2024/02/29 07:51:47;;;;;;;;;;;;;;;20.00;58.21;101531.84;7387034;19;1362;-38
2024/02/29 07:54:15;;;;;;;;;;;;;;;19.92;57.87;101526.25;7386432;19;1227;-39
2024/02/29 07:56:43;;;;;;;;;;;;;;;19.55;57.47;101521.09;7385609;19;1433;-38
2024/02/29 07:59:15;;;;;;;;;;;;;;;19.20;57.54;101525.56;7387380;19;1113;-38
2024/02/29 08:01:43;;;;;;;;;;;;;;;18.92;55.57;101524.13;7388524;19;1722;-37
2024/02/29 08:04:11;;;;;;;;;;;;;;;18.89;55.72;101521.66;7386088;19;1403;-38
2024/02/29 08:06:39;;;;;;;;;;;;;;;18.89;55.31;101564.56;7387372;19;1530;-39
2024/02/29 08:09:08;;;;;;;;;;;;;;;18.77;56.96;101539.50;7385317;19;1860;-37
2024/02/29 08:11:37;;;;;;;;;;;;;;;18.82;57.73;101526.66;7388254;19;1527;-38
2024/02/29 08:14:05;;;;;;;;;;;;;;;19.18;58.19;101518.56;7388518;19;1657;-37
2024/02/29 08:16:36;;;;;;;;;;;;;;;19.27;58.98;101531.28;7392649;19;1206;-35
2024/02/29 08:19:05;;;;;;;;;;;;;;;19.11;58.96;101520.03;7391057;19;1493;-35
2024/02/29 08:21:34;;;;;;;;;;;;;;;18.88;57.80;101536.06;7392472;19;1478;-35
2024/02/29 08:24:02;;;;;;;;;;;;;;;18.98;58.91;101507.59;7393908;19;1149;-35
2024/02/29 08:26:30;;;;;;;;;;;;;;;19.02;59.43;101538.53;7392501;19;1519;-35
2024/02/29 08:28:59;;;;;;;;;;;;;;;18.95;59.91;101521.19;7388593;19;1841;-35
2024/02/29 08:31:28;;;;;;;;;;;;;;;18.92;59.36;101516.09;7392906;19;1510;-34
2024/02/29 08:33:59;;;;;;;;;;;;;;;18.90;59.94;101520.72;7393564;19;922;-34
2024/02/29 08:36:29;;;;;;;;;;;;;;;18.87;59.74;101507.53;7387020;19;1842;-35
2024/02/29 08:38:58;;;;;;;;;;;;;;;18.91;59.84;101525.09;7391258;19;1805;-35
2024/02/29 08:41:26;;;;;;;;;;;;;;;18.86;59.94;101516.53;7391212;19;1266;-35
2024/02/29 08:43:55;;;;;;;;;;;;;;;18.85;59.71;101517.50;7377497;19;1018;-35
2024/02/29 08:46:23;;;;;;;;;;;;;;;18.84;60.06;101511.31;7387435;19;1622;-35
2024/02/29 08:48:51;;;;;;;;;;;;;;;18.82;60.05;101520.41;7388801;19;1854;-36
2024/02/29 08:51:22;;;;;;;;;;;;;;;18.77;60.04;101523.41;7393162;19;1175;-36
2024/02/29 08:53:50;;;;;;;;;;;;;;;18.82;59.91;101523.97;7395288;19;1128;-35
2024/02/29 08:56:19;;;;;;;;;;;;;;;18.79;60.13;101516.16;7395356;19;1042;-35
2024/02/29 08:58:47;;;;;;;;;;;;;;;18.77;60.21;101519.88;7394345;19;1450;-35
2024/02/29 09:01:16;;;;;;;;;;;;;;;18.72;60.31;101519.38;7394690;19;1913;-35
2024/02/29 09:03:44;;;;;;;;;;;;;;;18.66;60.34;101505.47;7393816;19;1328;-34
2024/02/29 09:06:13;;;;;;;;;;;;;;;18.89;60.18;101505.59;7394378;19;1744;-35
2024/02/29 09:08:44;;;;;;;;;;;;;;;18.69;60.65;101521.31;7393132;19;1873;-35
2024/02/29 09:11:12;;;;;;;;;;;;;;;18.68;60.76;101522.28;7394122;19;1850;-40
2024/02/29 09:13:40;;;;;;;;;;;;;;;18.69;60.67;101505.22;7394184;19;1246;-35
2024/02/29 09:16:09;;;;;;;;;;;;;;;18.72;60.68;101514.88;7391522;19;1178;-35
2024/02/29 09:18:39;;;;;;;;;;;;;;;18.68;60.75;101506.22;7395067;19;1032;-34
2024/02/29 09:21:07;;;;;;;;;;;;;;;18.73;60.58;101499.66;7394171;19;1848;-35
2024/02/29 09:23:35;;;;;;;;;;;;;;;18.68;60.53;101500.88;7393146;19;1484;-35
2024/02/29 09:26:06;;;;;;;;;;;;;;;18.66;60.81;101497.44;7391813;19;1230;-35
2024/02/29 09:28:35;;;;;;;;;;;;;;;18.71;60.50;101510.47;7393441;19;1861;-35
2024/02/29 09:31:03;;;;;;;;;;;;;;;18.62;60.63;101497.78;7394245;19;1024;-35
2024/02/29 09:33:32;;;;;;;;;;;;;;;18.65;60.44;101506.44;7393106;19;1484;-35
2024/02/29 09:36:00;;;;;;;;;;;;;;;18.77;60.48;101501.13;7392625;19;1777;-37
2024/02/29 09:38:28;;;;;;;;;;;;;;;18.65;61.03;101487.69;7393799;19;1404;-35
2024/02/29 09:40:57;;;;;;;;;;;;;;;18.59;60.90;101511.41;7392837;19;1651;-35
2024/02/29 09:43:28;;;;;;;;;;;;;;;18.65;60.87;101503.75;7375005;19;1670;-35
2024/02/29 09:45:59;;;;;;;;;;;;;;;18.64;60.57;101491.34;7392504;19;1044;-35
2024/02/29 09:48:29;;;;;;;;;;;;;;;18.57;60.77;101506.16;7390756;19;1915;-35
2024/02/29 09:50:58;;;;;;;;;;;;;;;18.61;60.77;101491.56;7392753;19;1417;-35
2024/02/29 09:53:27;;;;;;;;;;;;;;;18.66;60.47;101504.59;7391592;19;1567;-35
2024/02/29 09:55:55;;;;;;;;;;;;;;;18.63;60.52;101470.03;7392555;19;1733;-35
2024/02/29 09:58:24;;;;;;;;;;;;;;;18.61;60.64;101498.75;7391672;19;2160;-35
2024/02/29 10:00:55;;;;;;;;;;;;;;;18.75;60.33;101501.25;7392338;19;1409;-35
2024/02/29 10:03:23;;;;;;;;;;;;;;;18.73;60.47;101484.44;7391959;19;1730;-35
2024/02/29 10:05:52;;;;;;;;;;;;;;;18.65;60.74;101468.94;7392605;19;1501;-35
2024/02/29 10:08:20;;;;;;;;;;;;;;;18.66;60.70;101493.88;7390330;19;1859;-35
2024/02/29 10:10:49;;;;;;;;;;;;;;;18.80;60.08;101479.47;7392688;19;1638;-35
2024/02/29 10:13:17;;;;;;;;;;;;;;;18.74;60.26;101479.91;7392040;19;1168;-36
2024/02/29 10:15:45;;;;;;;;;;;;;;;18.63;60.53;101478.91;7393164;19;966;-35
2024/02/29 10:18:16;;;;;;;;;;;;;;;18.62;60.53;101471.88;7391699;19;1865;-35
2024/02/29 10:20:45;;;;;;;;;;;;;;;18.62;60.47;101471.88;7390935;19;1853;-35
2024/02/29 10:23:14;;;;;;;;;;;;;;;18.59;60.83;101456.00;7389513;19;1804;-35
2024/02/29 10:25:43;;;;;;;;;;;;;;;18.54;60.86;101466.19;7391345;19;1390;-35
2024/02/29 10:28:14;;;;;;;;;;;;;;;18.75;60.29;101463.72;7390899;19;1844;-35
2024/02/29 10:30:43;;;;;;;;;;;;;;;18.59;61.10;101452.47;7391599;19;2166;-36
2024/02/29 10:33:13;;;;;;;;;;;;;;;18.67;60.90;101458.94;7390203;19;1816;-35
2024/02/29 10:35:44;;;;;;;;;;;;;;;18.65;60.72;101452.84;7390661;19;1776;-35
2024/02/29 10:38:12;;;;;;;;;;;;;;;18.64;60.64;101437.78;7391456;19;1524;-35
2024/02/29 10:40:42;;;;;;;;;;;;;;;18.57;60.56;101441.88;7390623;19;1686;-35
2024/02/29 10:43:13;;;;;;;;;;;;;;;18.54;60.69;101442.09;7374795;19;1471;-35
2024/02/29 10:45:45;;;;;;;;;;;;;;;18.59;60.29;101449.81;7391142;19;1112;-36
2024/02/29 10:48:15;;;;;;;;;;;;;;;18.53;60.73;101435.03;7390262;19;1860;-36
2024/02/29 10:50:51;;;;;;;;;;;;;;;18.57;60.65;101439.19;7388867;19;1287;-35
2024/02/29 10:53:22;;;;;;;;;;;;;;;18.76;60.29;101433.31;7389495;19;1199;-35
2024/02/29 10:55:52;;;;;;;;;;;;;;;18.52;61.10;101433.31;7391924;19;1061;-36
2024/02/29 10:58:25;;;;;;;;;;;;;;;18.55;60.95;101417.03;7389352;19;1547;-35
2024/02/29 11:00:53;;;;;;;;;;;;;;;18.58;60.55;101416.81;7392124;19;1402;-35
2024/02/29 11:03:22;;;;;;;;;;;;;;;18.55;60.57;101427.75;7390617;19;1234;-34
2024/02/29 11:05:54;;;;;;;;;;;;;;;18.57;60.64;101422.28;7390506;19;1706;-35
2024/02/29 11:08:22;;;;;;;;;;;;;;;18.55;60.40;101425.06;7390404;19;1838;-35
2024/02/29 11:10:50;;;;;;;;;;;;;;;18.57;60.24;101417.78;7390119;19;1671;-35
2024/02/29 11:13:22;;;;;;;;;;;;;;;18.49;60.86;101412.16;7388364;19;1309;-35
2024/02/29 11:15:53;;;;;;;;;;;;;;;18.75;60.06;101417.34;7390210;19;947;-35
2024/02/29 11:18:24;;;;;;;;;;;;;;;18.59;60.64;101423.88;7389109;19;1927;-35
2024/02/29 11:21:06;;;;;;;;;;;;;;;18.63;60.74;101413.78;7389893;19;1378;-35
2024/02/29 11:23:38;;;;;;;;;;;;;;;18.58;60.68;101408.78;7389046;19;1492;-35
2024/02/29 11:26:10;;;;;;;;;;;;;;;18.59;60.60;101414.97;7389871;19;1456;-35
2024/02/29 11:28:39;;;;;;;;;;;;;;;18.56;60.35;101408.03;7387609;19;1865;-35
2024/02/29 11:31:14;;;;;;;;;;;;;;;18.56;60.37;101402.69;7390394;19;1123;-35
2024/02/29 11:33:42;;;;;;;;;;;;;;;18.61;59.98;101400.50;7388787;19;1725;-35
2024/02/29 11:36:13;;;;;;;;;;;;;;;18.50;60.61;101400.44;7389520;19;1563;-35
2024/02/29 11:38:43;;;;;;;;;;;;;;;18.69;60.48;101402.59;7389141;19;1990;-35
2024/02/29 11:41:18;;;;;;;;;;;;;;;18.61;60.62;101389.78;7389266;19;1751;-36
2024/02/29 11:43:47;;;;;;;;;;;;;;;18.58;60.64;101395.38;7376154;19;1951;-36
2024/02/29 11:46:16;;;;;;;;;;;;;;;18.62;60.25;101395.97;7390615;19;1665;-36
2024/02/29 11:48:45;;;;;;;;;;;;;;;18.55;60.58;101386.72;7392946;19;1866;-35
2024/02/29 11:51:16;;;;;;;;;;;;;;;18.51;60.49;101383.41;7398478;19;1019;-35
2024/02/29 11:53:45;;;;;;;;;;;;;;;18.58;60.07;101371.28;7398424;19;1571;-35
2024/02/29 11:56:13;;;;;;;;;;;;;;;18.53;60.33;101376.13;7398340;19;1430;-35
2024/02/29 11:58:42;;;;;;;;;;;;;;;18.53;60.73;101380.63;7397816;19;1524;-35
2024/02/29 12:01:12;;;;;;;;;;;;;;;18.68;60.13;101376.75;7399879;19;1697;-35
2024/02/29 12:03:40;;;;;;;;;;;;;;;18.54;60.90;101364.41;7398292;19;1327;-35
2024/02/29 12:06:09;;;;;;;;;;;;;;;18.55;60.58;101373.34;7398143;19;1246;-35
2024/02/29 12:08:41;;;;;;;;;;;;;;;18.34;60.40;101317.75;7396583;19;1603;-35
2024/02/29 12:11:10;;;;;;;;;;;;;;;18.65;59.94;101360.94;7395916;19;1515;-35
2024/02/29 12:13:38;;;;;;;;;;;;;;;18.61;59.83;101352.28;7394051;19;1310;-35
2024/02/29 12:16:07;;;;;;;;;;;;;;;18.60;59.96;101361.28;7396704;19;1971;-34
2024/02/29 12:18:36;;;;;;;;;;;;;;;18.54;60.34;101351.03;7397979;19;1037;-35
2024/02/29 12:21:05;;;;;;;;;;;;;;;18.58;60.54;101357.88;7396768;19;1816;-35
2024/02/29 12:23:33;;;;;;;;;;;;;;;18.58;60.72;101351.66;7395633;19;1537;-35
2024/02/29 12:26:12;;;;;;;;;;;;;;;18.49;60.98;101342.50;7394731;19;1623;-35
2024/02/29 12:28:41;;;;;;;;;;;;;;;18.54;60.43;101351.03;7395064;19;1159;-36
2024/02/29 12:31:09;;;;;;;;;;;;;;;18.55;60.32;101352.75;7394983;19;1850;-34
2024/02/29 12:33:38;;;;;;;;;;;;;;;18.53;60.34;101335.94;7396286;19;1770;-37
2024/02/29 12:36:07;;;;;;;;;;;;;;;18.49;60.18;101347.88;7395774;19;1789;-35
2024/02/29 12:38:36;;;;;;;;;;;;;;;18.54;60.14;101337.63;7395727;19;1793;-35
2024/02/29 12:41:05;;;;;;;;;;;;;;;18.44;60.67;101344.69;7396717;19;1989;-35
2024/02/29 12:43:36;;;;;;;;;;;;;;;18.51;60.63;101326.34;7388423;19;1398;-35
2024/02/29 12:46:05;;;;;;;;;;;;;;;18.56;60.73;101329.50;7391183;19;1734;-35
2024/02/29 12:48:34;;;;;;;;;;;;;;;18.49;60.81;101321.09;7393603;19;1468;-34
2024/02/29 12:51:02;;;;;;;;;;;;;;;18.51;60.64;101319.13;7392312;19;1874;-35
2024/02/29 12:53:31;;;;;;;;;;;;;;;18.50;60.42;101322.78;7392819;19;1507;-35
2024/02/29 12:55:59;;;;;;;;;;;;;;;18.51;60.24;101319.13;7396182;19;898;-35
2024/02/29 12:58:27;;;;;;;;;;;;;;;18.56;60.24;101316.97;7394233;19;2667;-35
2024/02/29 13:00:59;;;;;;;;;;;;;;;18.56;60.21;101316.97;7394061;19;1785;-35
2024/02/29 13:03:27;;;;;;;;;;;;;;;18.51;60.64;101323.66;7394442;19;1231;-34
2024/02/29 13:05:56;;;;;;;;;;;;;;;18.61;60.34;101319.28;7394943;19;1385;-35
2024/02/29 13:08:25;;;;;;;;;;;;;;;18.43;60.82;101314.38;7391617;19;2461;-35